createdAt,value
2022-07-29T00:00:07.310Z,41.99
2022-07-29T00:02:34.324Z,41.91
2022-07-29T00:05:01.863Z,42.91
2022-07-29T00:07:28.829Z,42.45
2022-07-29T00:09:55.743Z,42.16
2022-07-29T00:12:26.043Z,42.21
2022-07-29T00:14:56.369Z,42.23
2022-07-29T00:17:25.026Z,42.02
2022-07-29T00:19:52.268Z,42.12
2022-07-29T00:22:21.233Z,41.97
2022-07-29T00:24:52.425Z,41.46
2022-07-29T00:27:19.939Z,42.40
2022-07-29T00:29:48.622Z,42.24
2022-07-29T00:32:16.094Z,42.46
2022-07-29T00:35:01.347Z,42.30
2022-07-29T00:37:30.118Z,42.43
2022-07-29T00:39:59.782Z,42.37
2022-07-29T00:42:31.068Z,42.21
2022-07-29T00:44:59.631Z,42.34
2022-07-29T00:47:26.551Z,42.34
2022-07-29T00:49:53.534Z,41.75
2022-07-29T00:52:22.551Z,42.80
2022-07-29T00:54:49.501Z,43.07
2022-07-29T00:57:16.624Z,44.40
2022-07-29T00:59:43.636Z,44.51
2022-07-29T01:02:10.666Z,43.63
2022-07-29T01:04:37.935Z,43.19
2022-07-29T01:07:05.951Z,42.84
2022-07-29T01:09:45.352Z,42.75
2022-07-29T01:12:35.198Z,44.11
2022-07-29T01:15:06.981Z,41.69
2022-07-29T01:17:38.899Z,42.49
2022-07-29T01:20:14.903Z,42.94
2022-07-29T01:22:54.508Z,42.77
2022-07-29T01:25:55.922Z,45.19
2022-07-29T01:29:07.673Z,43.50
2022-07-29T01:31:58.686Z,44.76
2022-07-29T01:34:42.550Z,44.91
2022-07-29T01:37:47.559Z,44.01
2022-07-29T01:40:40.542Z,43.66
2022-07-29T01:43:15.750Z,43.57
2022-07-29T01:46:00.221Z,43.46
2022-07-29T01:48:47.051Z,43.61
2022-07-29T01:51:29.628Z,43.49
2022-07-29T01:54:32.463Z,43.39
2022-07-29T01:57:05.078Z,43.48
2022-07-29T01:59:36.752Z,43.24
2022-07-29T02:02:06.514Z,43.28
2022-07-29T02:04:36.643Z,43.38
2022-07-29T02:07:07.303Z,43.50
2022-07-29T02:09:37.540Z,43.48
2022-07-29T02:12:10.534Z,43.74
2022-07-29T02:14:48.104Z,43.69
2022-07-29T02:17:23.666Z,43.93
2022-07-29T02:19:55.426Z,43.64
2022-07-29T02:22:24.504Z,43.68
2022-07-29T02:24:53.982Z,43.31
2022-07-29T02:27:21.921Z,43.51
2022-07-29T02:29:51.390Z,43.54
2022-07-29T02:32:19.942Z,43.72
2022-07-29T02:34:48.803Z,43.63
2022-07-29T02:37:18.645Z,43.84
2022-07-29T02:39:46.693Z,44.68
2022-07-29T02:42:17.301Z,44.42
2022-07-29T02:44:44.780Z,44.45
2022-07-29T02:47:25.861Z,44.33
2022-07-29T02:50:00.841Z,44.28
2022-07-29T02:52:42.500Z,44.06
2022-07-29T02:55:20.516Z,44.01
2022-07-29T02:58:01.838Z,43.99
2022-07-29T03:00:31.281Z,44.11
2022-07-29T03:03:02.500Z,44.25
2022-07-29T03:05:30.375Z,43.94
2022-07-29T03:08:02.794Z,44.06
2022-07-29T03:10:30.188Z,44.14
2022-07-29T03:12:59.111Z,44.42
2022-07-29T03:15:27.213Z,44.30
2022-07-29T03:17:55.058Z,44.45
2022-07-29T03:20:22.232Z,44.46
2022-07-29T03:22:49.830Z,44.56
2022-07-29T03:25:19.057Z,44.33
2022-07-29T03:27:47.413Z,44.38
2022-07-29T03:30:18.442Z,44.42
2022-07-29T03:32:52.060Z,44.39
2022-07-29T03:35:20.694Z,44.39
2022-07-29T03:37:48.376Z,44.39
2022-07-29T03:40:27.175Z,44.47
2022-07-29T03:42:56.782Z,44.59
2022-07-29T03:45:25.541Z,44.56
2022-07-29T03:48:00.553Z,44.13
2022-07-29T03:50:29.949Z,44.80
2022-07-29T03:52:56.933Z,44.67
2022-07-29T03:55:24.677Z,44.58
2022-07-29T03:57:52.496Z,44.71
2022-07-29T04:00:21.302Z,44.80
2022-07-29T04:02:50.126Z,44.81
2022-07-29T04:05:18.339Z,44.94
2022-07-29T04:07:46.588Z,44.75
2022-07-29T04:10:14.383Z,44.89
2022-07-29T04:12:41.373Z,44.92
2022-07-29T04:15:08.662Z,44.86
2022-07-29T04:17:35.544Z,45.13
2022-07-29T04:20:02.427Z,45.13
2022-07-29T04:22:29.237Z,45.14
2022-07-29T04:24:59.109Z,44.98
2022-07-29T04:27:30.195Z,44.79
2022-07-29T04:29:57.683Z,45.07
2022-07-29T04:32:28.868Z,44.94
2022-07-29T04:34:55.699Z,45.16
2022-07-29T04:37:22.656Z,44.88
2022-07-29T04:39:49.501Z,44.86
2022-07-29T04:42:16.380Z,45.31
2022-07-29T04:44:44.274Z,44.92
2022-07-29T04:47:11.151Z,44.82
2022-07-29T04:49:41.105Z,45.06
2022-07-29T04:52:08.041Z,44.93
2022-07-29T04:54:34.956Z,44.89
2022-07-29T04:57:01.902Z,45.12
2022-07-29T04:59:28.782Z,45.21
2022-07-29T05:01:55.795Z,45.07
2022-07-29T05:04:30.054Z,44.85
2022-07-29T05:07:01.434Z,44.88
2022-07-29T05:09:33.495Z,44.93
2022-07-29T05:12:00.613Z,44.91
2022-07-29T05:14:27.652Z,44.92
2022-07-29T05:16:57.781Z,44.71
2022-07-29T05:19:24.837Z,44.77
2022-07-29T05:21:51.782Z,44.80
2022-07-29T05:24:19.290Z,44.93
2022-07-29T05:26:46.495Z,44.95
2022-07-29T05:29:43.389Z,44.65
2022-07-29T05:32:00.357Z,44.37
2022-07-29T05:34:27.355Z,44.28
2022-07-29T05:36:54.516Z,44.28
2022-07-29T05:39:21.715Z,44.21
2022-07-29T05:41:52.107Z,44.19
2022-07-29T05:44:19.435Z,44.13
2022-07-29T05:46:46.594Z,43.86
2022-07-29T05:49:26.965Z,43.74
2022-07-29T05:51:54.441Z,43.01
2022-07-29T05:54:22.168Z,43.71
2022-07-29T05:56:49.224Z,43.81
2022-07-29T05:59:18.330Z,44.70
2022-07-29T06:01:45.444Z,43.78
2022-07-29T06:04:12.494Z,43.24
2022-07-29T06:06:39.558Z,43.59
2022-07-29T06:09:12.222Z,43.05
2022-07-29T06:11:39.831Z,42.80
2022-07-29T06:14:06.713Z,42.28
2022-07-29T06:16:33.659Z,43.60
2022-07-29T06:19:00.625Z,42.50
2022-07-29T06:21:27.592Z,41.95
2022-07-29T06:23:54.599Z,44.24
2022-07-29T06:26:30.599Z,43.65
2022-07-29T06:28:58.513Z,42.18
2022-07-29T06:31:25.627Z,44.50
2022-07-29T06:33:54.691Z,42.69
2022-07-29T06:36:23.535Z,41.67
2022-07-29T06:38:52.292Z,42.03
2022-07-29T06:41:20.685Z,41.93
2022-07-29T06:43:51.834Z,40.70
2022-07-29T06:46:21.002Z,41.12
2022-07-29T06:48:51.382Z,40.83
2022-07-29T06:51:22.897Z,40.53
2022-07-29T06:53:59.631Z,40.28
2022-07-29T06:56:29.637Z,40.48
2022-07-29T06:58:56.465Z,40.39
2022-07-29T07:01:23.351Z,41.15
2022-07-29T07:03:50.385Z,40.55
2022-07-29T07:06:17.525Z,42.50
2022-07-29T07:08:44.912Z,41.19
2022-07-29T07:11:11.753Z,41.03
2022-07-29T07:13:38.773Z,40.84
2022-07-29T07:16:05.873Z,41.25
2022-07-29T07:18:33.071Z,41.22
2022-07-29T07:20:59.999Z,43.75
2022-07-29T07:23:26.953Z,42.37
2022-07-29T07:25:53.953Z,44.57
2022-07-29T07:28:24.841Z,43.53
2022-07-29T07:30:52.932Z,43.93
2022-07-29T07:33:20.039Z,43.13
2022-07-29T07:35:47.231Z,46.74
2022-07-29T07:38:14.202Z,43.49
2022-07-29T07:40:41.692Z,42.44
2022-07-29T07:43:08.713Z,41.23
2022-07-29T07:45:38.799Z,40.79
2022-07-29T07:48:06.489Z,40.42
2022-07-29T07:50:33.383Z,41.16
2022-07-29T07:53:00.706Z,41.62
2022-07-29T07:55:27.752Z,40.79
2022-07-29T07:57:55.638Z,40.66
2022-07-29T08:00:23.696Z,40.51
2022-07-29T08:02:51.749Z,39.58
2022-07-29T08:05:19.300Z,39.19
2022-07-29T08:07:48.948Z,41.10
2022-07-29T08:10:37.305Z,41.48
2022-07-29T08:13:09.652Z,40.25
2022-07-29T08:15:36.995Z,42.68
2022-07-29T08:18:08.408Z,43.24
2022-07-29T08:20:37.074Z,41.62
2022-07-29T08:23:05.962Z,40.35
2022-07-29T08:25:34.744Z,39.97
2022-07-29T08:28:06.066Z,39.54
2022-07-29T08:30:33.527Z,38.74
2022-07-29T08:33:01.016Z,38.57
2022-07-29T08:35:33.347Z,37.98
2022-07-29T08:38:03.003Z,38.42
2022-07-29T08:40:45.666Z,38.63
2022-07-29T08:43:34.879Z,38.26
2022-07-29T08:46:11.733Z,38.11
2022-07-29T08:48:42.985Z,38.37
2022-07-29T08:51:21.692Z,37.71
2022-07-29T08:53:50.673Z,37.20
2022-07-29T08:56:19.383Z,36.78
2022-07-29T08:58:51.748Z,36.67
2022-07-29T09:01:23.804Z,36.22
2022-07-29T09:04:07.196Z,35.58
2022-07-29T09:06:38.561Z,37.35
2022-07-29T09:09:05.506Z,37.83
2022-07-29T09:11:33.751Z,38.26
2022-07-29T09:14:01.710Z,37.71
2022-07-29T09:16:57.509Z,35.86
2022-07-29T09:19:25.711Z,37.27
2022-07-29T09:21:59.228Z,38.01
2022-07-29T09:24:36.398Z,36.92
2022-07-29T09:27:03.406Z,36.31
2022-07-29T09:29:35.754Z,35.64
2022-07-29T09:32:10.434Z,34.84
2022-07-29T09:34:38.316Z,35.20
2022-07-29T09:37:06.227Z,34.85
2022-07-29T09:39:39.078Z,35.94
2022-07-29T09:42:07.509Z,36.48
2022-07-29T09:44:49.603Z,34.80
2022-07-29T09:47:19.428Z,34.00
2022-07-29T09:50:01.591Z,33.02
2022-07-29T09:52:30.159Z,33.51
2022-07-29T09:55:10.516Z,33.46
2022-07-29T09:57:46.037Z,32.01
2022-07-29T10:00:16.393Z,34.49
2022-07-29T10:02:46.152Z,33.61
2022-07-29T10:05:24.997Z,33.34
2022-07-29T10:07:57.491Z,30.62
2022-07-29T10:10:30.516Z,31.89
2022-07-29T10:13:07.182Z,31.16
2022-07-29T10:15:42.039Z,31.72
2022-07-29T10:18:09.971Z,31.86
2022-07-29T10:20:37.890Z,30.53
2022-07-29T10:23:05.002Z,31.39
2022-07-29T10:25:32.561Z,32.50
2022-07-29T10:27:59.591Z,31.70
2022-07-29T10:30:27.275Z,31.67
2022-07-29T10:33:19.107Z,31.19
2022-07-29T10:36:04.747Z,31.74
2022-07-29T10:38:38.502Z,30.28
2022-07-29T10:41:31.979Z,31.06
2022-07-29T10:44:24.115Z,30.26
2022-07-29T10:46:52.714Z,30.22
2022-07-29T10:49:24.926Z,29.62
2022-07-29T10:51:52.066Z,29.89
2022-07-29T10:54:20.631Z,29.86
2022-07-29T10:56:49.386Z,29.11
2022-07-29T10:59:21.459Z,29.13
2022-07-29T11:01:52.694Z,28.87
2022-07-29T11:04:45.466Z,29.69
2022-07-29T11:07:15.200Z,28.49
2022-07-29T11:09:42.231Z,27.71
2022-07-29T11:12:48.749Z,26.61
2022-07-29T11:15:22.264Z,25.10
2022-07-29T11:17:54.882Z,24.51
2022-07-29T11:20:44.346Z,24.90
2022-07-29T11:26:23.635Z,25.17
2022-07-29T11:28:56.498Z,25.51
2022-07-29T11:31:44.925Z,25.31
2022-07-29T11:34:27.869Z,26.26
2022-07-29T11:37:17.625Z,24.62
2022-07-29T11:40:02.060Z,23.26
2022-07-29T11:42:32.877Z,23.99
2022-07-29T11:45:43.551Z,26.03
2022-07-29T11:48:29.444Z,25.93
2022-07-29T11:50:58.793Z,25.39
2022-07-29T11:53:29.027Z,24.53
2022-07-29T11:56:00.759Z,25.16
2022-07-29T11:58:29.691Z,24.83
2022-07-29T12:00:57.898Z,24.80
2022-07-29T12:03:34.858Z,26.05
2022-07-29T12:06:07.391Z,26.39
2022-07-29T12:08:42.040Z,25.15
2022-07-29T12:11:17.297Z,27.36
2022-07-29T12:13:44.306Z,26.22
2022-07-29T12:16:14.703Z,25.94
2022-07-29T12:18:42.378Z,25.59
2022-07-29T12:21:12.476Z,25.50
2022-07-29T12:23:39.769Z,25.87
2022-07-29T12:26:11.091Z,26.98
2022-07-29T12:28:51.370Z,26.60
2022-07-29T12:31:43.120Z,27.33
2022-07-29T12:34:05.772Z,28.67
2022-07-29T12:36:36.652Z,28.54
2022-07-29T12:39:05.010Z,29.23
2022-07-29T12:41:32.871Z,27.79
2022-07-29T12:43:59.699Z,26.69
2022-07-29T12:46:26.853Z,26.39
2022-07-29T12:48:59.801Z,25.82
2022-07-29T12:51:39.171Z,24.80
2022-07-29T12:54:15.089Z,24.04
2022-07-29T12:56:44.958Z,25.54
2022-07-29T12:59:23.089Z,23.99
2022-07-29T13:01:52.495Z,23.47
2022-07-29T13:04:32.643Z,23.20
2022-07-29T13:07:04.901Z,23.15
2022-07-29T13:09:43.489Z,20.75
2022-07-29T13:12:12.578Z,20.90
2022-07-29T13:14:44.969Z,21.48
2022-07-29T13:17:24.206Z,23.64
2022-07-29T13:19:54.294Z,23.88
2022-07-29T13:22:25.450Z,24.47
2022-07-29T13:24:57.616Z,22.67
2022-07-29T13:27:27.030Z,22.60
2022-07-29T13:29:57.576Z,24.35
2022-07-29T13:32:28.727Z,24.24
2022-07-29T13:34:57.714Z,24.33
2022-07-29T13:37:24.776Z,25.05
2022-07-29T13:39:53.164Z,23.40
2022-07-29T13:42:20.813Z,23.97
2022-07-29T13:44:49.793Z,22.59
2022-07-29T13:47:17.327Z,22.67
2022-07-29T13:49:44.330Z,23.06
2022-07-29T13:52:11.369Z,22.19
2022-07-29T13:54:42.860Z,23.58
2022-07-29T13:57:13.859Z,23.64
2022-07-29T13:59:42.014Z,24.41
2022-07-29T14:02:10.050Z,23.66
2022-07-29T14:04:39.617Z,23.93
2022-07-29T14:07:07.415Z,24.31
2022-07-29T14:09:40.929Z,23.68
2022-07-29T14:12:09.164Z,22.50
2022-07-29T14:14:37.713Z,21.74
2022-07-29T14:17:07.830Z,22.14
2022-07-29T14:19:37.445Z,22.57
2022-07-29T14:22:05.925Z,24.41
2022-07-29T14:24:34.681Z,24.40
2022-07-29T14:27:04.659Z,23.64
2022-07-29T14:29:37.194Z,23.58
2022-07-29T14:32:08.501Z,22.92
2022-07-29T14:34:39.160Z,22.93
2022-07-29T14:37:07.017Z,23.36
2022-07-29T14:39:38.163Z,24.09
2022-07-29T14:42:09.531Z,24.09
2022-07-29T14:44:38.707Z,23.63
2022-07-29T14:47:07.634Z,24.79
2022-07-29T14:49:35.587Z,23.99
2022-07-29T14:52:02.484Z,25.35
2022-07-29T14:54:29.372Z,24.65
2022-07-29T14:56:58.596Z,24.83
2022-07-29T14:59:27.057Z,24.08
2022-07-29T15:01:54.320Z,24.35
2022-07-29T15:04:21.376Z,22.98
2022-07-29T15:06:48.987Z,23.12
2022-07-29T15:09:16.521Z,22.54
2022-07-29T15:11:43.331Z,22.51
2022-07-29T15:14:10.332Z,23.72
2022-07-29T15:16:38.924Z,22.92
2022-07-29T15:19:06.055Z,23.09
2022-07-29T15:21:33.331Z,23.96
2022-07-29T15:24:00.294Z,23.92
2022-07-29T15:26:27.384Z,22.05
2022-07-29T15:28:54.345Z,21.29
2022-07-29T15:31:21.449Z,20.77
2022-07-29T15:33:48.961Z,21.05
2022-07-29T15:36:42.202Z,22.82
2022-07-29T15:39:03.011Z,21.56
2022-07-29T15:41:29.852Z,21.40
2022-07-29T15:43:56.814Z,21.54
2022-07-29T15:46:42.168Z,21.87
2022-07-29T15:49:10.040Z,22.38
2022-07-29T15:51:37.210Z,22.67
2022-07-29T15:54:05.536Z,21.59
2022-07-29T15:56:32.809Z,21.23
2022-07-29T15:59:00.256Z,21.73
2022-07-29T16:01:28.057Z,21.46
2022-07-29T16:03:55.112Z,21.14
2022-07-29T16:06:22.143Z,20.84
2022-07-29T16:08:48.923Z,20.78
2022-07-29T16:11:16.241Z,22.48
2022-07-29T16:13:43.042Z,20.75
2022-07-29T16:16:10.544Z,20.49
2022-07-29T16:18:37.535Z,20.28
2022-07-29T16:21:04.391Z,20.18
2022-07-29T16:23:31.288Z,20.22
2022-07-29T16:26:00.003Z,20.05
2022-07-29T16:28:28.602Z,20.09
2022-07-29T16:30:55.693Z,20.30
2022-07-29T16:33:22.729Z,19.81
2022-07-29T16:35:50.531Z,18.15
2022-07-29T16:38:17.345Z,17.34
2022-07-29T16:40:44.335Z,16.91
2022-07-29T16:43:11.409Z,16.06
2022-07-29T16:45:45.984Z,15.84
2022-07-29T16:48:18.089Z,16.21
2022-07-29T16:50:45.977Z,15.23
2022-07-29T16:53:12.888Z,15.79
2022-07-29T16:55:42.495Z,17.39
2022-07-29T16:58:10.021Z,17.67
2022-07-29T17:00:37.259Z,17.28
2022-07-29T17:03:05.609Z,16.26
2022-07-29T17:05:50.761Z,16.79
2022-07-29T17:08:20.103Z,17.31
2022-07-29T17:10:47.490Z,17.34
2022-07-29T17:13:14.537Z,17.71
2022-07-29T17:15:43.215Z,16.78
2022-07-29T17:18:12.335Z,17.22
2022-07-29T17:20:42.147Z,18.74
2022-07-29T17:23:09.335Z,17.04
2022-07-29T17:25:36.617Z,17.49
2022-07-29T17:28:03.646Z,18.54
2022-07-29T17:30:30.503Z,18.14
2022-07-29T17:32:57.407Z,18.13
2022-07-29T17:36:02.683Z,17.79
2022-07-29T17:38:29.568Z,17.76
2022-07-29T17:40:56.591Z,18.29
2022-07-29T17:43:23.404Z,17.33
2022-07-29T17:45:51.735Z,17.33
2022-07-29T17:48:19.722Z,18.24
2022-07-29T17:50:47.856Z,19.10
2022-07-29T17:53:16.406Z,18.09
2022-07-29T17:55:45.582Z,18.26
2022-07-29T17:58:13.011Z,19.01
2022-07-29T18:00:39.837Z,18.56
2022-07-29T18:03:07.945Z,19.74
2022-07-29T18:05:35.296Z,20.60
2022-07-29T18:08:02.257Z,19.85
2022-07-29T18:10:29.141Z,20.95
2022-07-29T18:12:55.906Z,20.60
2022-07-29T18:15:23.122Z,21.49
2022-07-29T18:17:56.950Z,22.79
2022-07-29T18:20:26.010Z,21.20
2022-07-29T18:22:54.290Z,21.48
2022-07-29T18:25:21.282Z,22.56
2022-07-29T18:27:51.922Z,22.56
2022-07-29T18:30:20.709Z,22.75
2022-07-29T18:33:11.381Z,23.07
2022-07-29T18:35:37.576Z,23.43
2022-07-29T18:38:06.251Z,23.19
2022-07-29T18:40:40.423Z,22.85
2022-07-29T18:43:07.533Z,23.72
2022-07-29T18:45:38.468Z,24.01
2022-07-29T18:48:14.171Z,25.11
2022-07-29T18:50:46.216Z,24.30
2022-07-29T18:53:17.288Z,24.11
2022-07-29T18:55:44.730Z,26.71
2022-07-29T18:58:13.623Z,27.33
2022-07-29T19:00:44.171Z,28.25
2022-07-29T19:03:15.655Z,28.65
2022-07-29T19:05:47.586Z,28.70
2022-07-29T19:08:16.604Z,28.88
2022-07-29T19:10:45.410Z,28.72
2022-07-29T19:13:17.813Z,29.13
2022-07-29T19:15:46.826Z,30.09
2022-07-29T19:18:13.890Z,30.79
2022-07-29T19:20:43.254Z,32.69
2022-07-29T19:23:59.930Z,31.69
2022-07-29T19:26:26.273Z,30.72
2022-07-29T19:28:56.330Z,32.79
2022-07-29T19:31:26.784Z,31.36
2022-07-29T19:33:57.371Z,30.98
2022-07-29T19:36:31.435Z,30.73
2022-07-29T19:39:02.094Z,31.20
2022-07-29T19:41:29.728Z,30.79
2022-07-29T19:43:58.407Z,30.72
2022-07-29T19:46:29.659Z,31.41
2022-07-29T19:49:00.973Z,31.74
2022-07-29T19:51:39.323Z,31.90
2022-07-29T19:54:07.160Z,32.21
2022-07-29T19:56:43.724Z,33.02
2022-07-29T19:59:11.817Z,33.05
2022-07-29T20:01:39.261Z,34.16
2022-07-29T20:04:06.406Z,34.36
2022-07-29T20:06:34.534Z,35.27
2022-07-29T20:09:01.688Z,35.74
2022-07-29T20:11:29.950Z,36.60
2022-07-29T20:13:58.504Z,36.28
2022-07-29T20:16:25.597Z,36.69
2022-07-29T20:18:54.291Z,39.18
2022-07-29T20:21:28.651Z,38.55
2022-07-29T20:23:58.746Z,38.15
2022-07-29T20:26:25.730Z,37.44
2022-07-29T20:28:53.093Z,36.88
2022-07-29T20:31:22.915Z,37.37
2022-07-29T20:33:49.968Z,37.83
2022-07-29T20:36:25.082Z,37.36
2022-07-29T20:38:57.529Z,37.46
2022-07-29T20:41:24.485Z,37.59
2022-07-29T20:43:53.049Z,37.03
2022-07-29T20:46:22.048Z,37.94
2022-07-29T20:48:49.717Z,37.81
2022-07-29T20:51:17.222Z,37.35
2022-07-29T20:53:44.362Z,38.21
2022-07-29T20:56:12.660Z,37.74
2022-07-29T20:58:44.065Z,38.43
2022-07-29T21:01:15.051Z,38.35
2022-07-29T21:03:42.025Z,38.23
2022-07-29T21:06:11.009Z,38.39
2022-07-29T21:08:41.722Z,37.57
2022-07-29T21:11:10.296Z,37.88
2022-07-29T21:13:45.571Z,38.13
2022-07-29T21:16:14.789Z,38.52
2022-07-29T21:18:49.424Z,39.67
2022-07-29T21:21:17.928Z,39.17
2022-07-29T21:23:49.735Z,39.02
2022-07-29T21:26:17.054Z,39.72
2022-07-29T21:29:08.216Z,39.02
2022-07-29T21:31:36.650Z,38.52
2022-07-29T21:34:04.106Z,38.10
2022-07-29T21:36:49.255Z,38.03
2022-07-29T21:39:18.823Z,38.73
2022-07-29T21:41:47.416Z,39.90
2022-07-29T21:44:18.782Z,39.69
2022-07-29T21:46:47.603Z,40.31
2022-07-29T21:49:15.651Z,39.59
2022-07-29T21:51:43.541Z,38.80
2022-07-29T21:54:25.785Z,38.96
2022-07-29T21:56:58.305Z,38.93
2022-07-29T21:59:25.523Z,38.83
2022-07-29T22:01:57.937Z,39.46
2022-07-29T22:04:25.481Z,40.11
2022-07-29T22:06:53.143Z,39.34
2022-07-29T22:09:20.297Z,39.10
2022-07-29T22:11:59.053Z,39.85
2022-07-29T22:14:26.386Z,39.92
2022-07-29T22:16:53.381Z,39.70
2022-07-29T22:19:27.366Z,39.69
2022-07-29T22:21:54.768Z,39.50
2022-07-29T22:24:26.573Z,39.31
2022-07-29T22:27:01.187Z,39.74
2022-07-29T22:29:30.973Z,39.94
2022-07-29T22:31:57.934Z,39.95
2022-07-29T22:34:26.210Z,40.30
2022-07-29T22:37:12.426Z,40.25
2022-07-29T22:39:46.289Z,40.00
2022-07-29T22:42:14.337Z,39.64
2022-07-29T22:44:44.605Z,40.23
2022-07-29T22:47:11.789Z,40.80
2022-07-29T22:49:41.545Z,40.61
2022-07-29T22:52:09.450Z,40.61
2022-07-29T22:54:36.651Z,40.72
2022-07-29T22:57:08.970Z,40.43
2022-07-29T22:59:37.489Z,40.87
2022-07-29T23:02:06.768Z,40.82
2022-07-29T23:04:55.403Z,41.00
2022-07-29T23:07:25.784Z,41.24
2022-07-29T23:09:54.322Z,41.02
2022-07-29T23:12:21.291Z,40.97
2022-07-29T23:14:48.571Z,41.06
2022-07-29T23:17:18.485Z,41.48
2022-07-29T23:19:46.533Z,41.91
2022-07-29T23:22:18.705Z,41.71
2022-07-29T23:24:46.041Z,42.13
2022-07-29T23:27:16.403Z,42.01
2022-07-29T23:29:43.804Z,42.36
2022-07-29T23:32:10.691Z,42.36
2022-07-29T23:34:38.370Z,42.88
2022-07-29T23:37:10.628Z,43.41
2022-07-29T23:39:37.924Z,43.75
2022-07-29T23:42:06.331Z,44.01
2022-07-29T23:44:34.888Z,44.49
2022-07-29T23:49:44.655Z,44.69
2022-07-29T23:52:14.053Z,44.68
2022-07-29T23:54:41.419Z,44.77
2022-07-29T23:57:15.729Z,45.21
2022-07-29T23:59:42.776Z,45.03
